createdAt,value
2022-09-28T00:01:22.009Z,1.42
2022-09-28T00:03:50.572Z,1.20
2022-09-28T00:06:19.431Z,1.85
2022-09-28T00:08:47.175Z,1.95
2022-09-28T00:11:15.477Z,1.48
2022-09-28T00:13:44.002Z,1.70
2022-09-28T00:16:13.992Z,1.25
2022-09-28T00:18:42.042Z,1.35
2022-09-28T00:21:12.237Z,1.20
2022-09-28T00:23:59.106Z,1.73
2022-09-28T00:26:31.899Z,1.05
2022-09-28T00:29:00.399Z,1.95
2022-09-28T00:31:29.605Z,0.80
2022-09-28T00:33:57.284Z,1.25
2022-09-28T00:36:27.164Z,1.40
2022-09-28T00:38:58.051Z,0.90
2022-09-28T00:41:29.750Z,1.17
2022-09-28T00:44:23.830Z,1.05
2022-09-28T00:46:56.794Z,1.27
2022-09-28T00:49:40.804Z,1.20
2022-09-28T00:52:10.665Z,1.02
2022-09-28T00:54:38.455Z,1.00
2022-09-28T00:57:06.058Z,0.57
2022-09-28T00:59:34.412Z,0.80
2022-09-28T01:02:02.617Z,0.40
2022-09-28T01:04:30.813Z,1.60
2022-09-28T01:06:59.586Z,0.50
2022-09-28T01:09:27.803Z,0.60
2022-09-28T01:11:55.612Z,0.40
2022-09-28T01:14:25.683Z,0.60
2022-09-28T01:16:53.320Z,0.50
2022-09-28T01:19:47.108Z,0.73
2022-09-28T01:22:32.019Z,1.00
2022-09-28T01:24:59.888Z,1.05
2022-09-28T01:27:34.195Z,0.57
2022-09-28T01:30:09.460Z,0.60
2022-09-28T01:32:56.904Z,0.60
2022-09-28T01:35:27.784Z,0.50
2022-09-28T01:38:02.992Z,0.93
2022-09-28T01:40:31.940Z,0.70
2022-09-28T01:43:14.344Z,0.50
2022-09-28T01:45:45.765Z,0.50
2022-09-28T01:48:16.159Z,0.82
2022-09-28T01:50:45.410Z,0.45
2022-09-28T01:53:22.254Z,0.73
2022-09-28T01:55:55.492Z,0.55
2022-09-28T01:58:26.105Z,0.80
2022-09-28T02:00:57.187Z,0.60
2022-09-28T02:06:02.473Z,0.60
2022-09-28T02:08:30.101Z,0.67
2022-09-28T02:10:57.955Z,0.55
2022-09-28T02:13:46.506Z,0.65
2022-09-28T02:16:33.333Z,0.70
2022-09-28T02:19:01.153Z,0.70
2022-09-28T02:21:40.606Z,0.60
2022-09-28T02:24:11.308Z,0.60
2022-09-28T02:26:43.384Z,0.60
2022-09-28T02:29:11.203Z,0.63
2022-09-28T02:31:38.863Z,0.68
2022-09-28T02:34:06.813Z,0.82
2022-09-28T02:36:34.905Z,0.80
2022-09-28T02:39:02.549Z,0.90
2022-09-28T02:41:39.339Z,0.80
2022-09-28T02:44:30.146Z,1.00
2022-09-28T02:47:11.384Z,0.75
2022-09-28T02:49:47.643Z,0.80
2022-09-28T02:52:38.048Z,1.05
2022-09-28T02:55:18.777Z,1.05
2022-09-28T02:57:48.322Z,1.00
2022-09-28T03:00:19.370Z,1.00
2022-09-28T03:02:54.876Z,1.08
2022-09-28T03:05:41.225Z,0.90
2022-09-28T03:08:21.043Z,1.50
2022-09-28T03:10:52.178Z,1.35
2022-09-28T03:13:20.401Z,1.38
2022-09-28T03:15:49.033Z,1.15
2022-09-28T03:18:18.176Z,1.00
2022-09-28T03:20:45.724Z,1.15
2022-09-28T03:23:24.423Z,1.27
2022-09-28T03:25:52.795Z,1.10
2022-09-28T03:28:21.419Z,1.20
2022-09-28T03:30:49.604Z,1.00
2022-09-28T03:33:17.297Z,1.02
2022-09-28T03:35:47.241Z,1.17
2022-09-28T03:38:15.179Z,1.10
2022-09-28T03:40:43.617Z,1.00
2022-09-28T03:43:11.163Z,1.45
2022-09-28T03:45:39.061Z,1.02
2022-09-28T03:48:10.346Z,1.15
2022-09-28T03:50:38.037Z,1.60
2022-09-28T03:53:05.954Z,1.40
2022-09-28T03:55:33.530Z,1.63
2022-09-28T03:58:01.121Z,2.75
2022-09-28T04:00:29.985Z,1.88
2022-09-28T04:02:58.085Z,1.83
2022-09-28T04:05:26.258Z,2.55
2022-09-28T04:07:56.221Z,2.17
2022-09-28T04:10:24.572Z,2.20
2022-09-28T04:12:55.340Z,2.10
2022-09-28T04:15:23.780Z,2.30
2022-09-28T04:17:51.579Z,2.00
2022-09-28T04:20:39.994Z,2.17
2022-09-28T04:23:12.487Z,2.10
2022-09-28T04:25:40.144Z,1.95
2022-09-28T04:28:28.051Z,2.15
2022-09-28T04:30:55.652Z,2.30
2022-09-28T04:33:23.357Z,2.05
2022-09-28T04:35:50.899Z,2.38
2022-09-28T04:38:26.876Z,2.40
2022-09-28T04:41:03.526Z,1.95
2022-09-28T04:43:31.126Z,1.95
2022-09-28T04:46:00.494Z,2.40
2022-09-28T04:48:32.086Z,2.55
2022-09-28T04:51:10.459Z,2.60
2022-09-28T04:53:38.107Z,2.03
2022-09-28T04:56:07.203Z,2.42
2022-09-28T04:58:35.830Z,2.20
2022-09-28T05:01:05.871Z,1.90
2022-09-28T05:04:12.003Z,2.42
2022-09-28T05:07:02.472Z,2.58
2022-09-28T05:09:30.047Z,2.78
2022-09-28T05:11:57.512Z,2.58
2022-09-28T05:14:26.377Z,2.67
2022-09-28T05:16:54.013Z,2.75
2022-09-28T05:19:27.650Z,2.83
2022-09-28T05:22:08.392Z,3.55
2022-09-28T05:24:40.120Z,3.60
2022-09-28T05:27:07.870Z,3.38
2022-09-28T05:29:35.396Z,2.40
2022-09-28T05:32:22.084Z,3.70
2022-09-28T05:35:08.789Z,3.75
2022-09-28T05:37:42.565Z,3.20
2022-09-28T05:40:10.477Z,4.05
2022-09-28T05:42:39.351Z,3.50
2022-09-28T05:45:07.083Z,4.18
2022-09-28T05:47:39.210Z,4.10
2022-09-28T05:50:08.392Z,4.80
2022-09-28T05:52:35.949Z,4.65
2022-09-28T05:55:05.106Z,4.70
2022-09-28T05:57:32.735Z,5.00
2022-09-28T06:00:00.413Z,5.28
2022-09-28T06:02:28.393Z,4.80
2022-09-28T06:04:56.215Z,6.10
2022-09-28T06:07:23.872Z,6.20
2022-09-28T06:09:51.428Z,5.68
2022-09-28T06:12:25.650Z,5.03
2022-09-28T06:15:01.172Z,4.65
2022-09-28T06:17:28.912Z,4.40
2022-09-28T06:20:16.328Z,5.53
2022-09-28T06:22:59.248Z,5.60
2022-09-28T06:25:29.781Z,5.72
2022-09-28T06:28:17.669Z,5.30
2022-09-28T06:30:45.831Z,4.57
2022-09-28T06:33:16.813Z,5.70
2022-09-28T06:35:44.473Z,6.05
2022-09-28T06:38:12.092Z,6.57
2022-09-28T06:40:39.942Z,6.35
2022-09-28T06:43:10.564Z,6.47
2022-09-28T06:45:56.886Z,3.47
2022-09-28T06:48:54.566Z,1.40
2022-09-28T06:51:42.026Z,1.60
2022-09-28T06:54:32.791Z,0.85
2022-09-28T06:57:10.096Z,3.47
2022-09-28T06:59:38.560Z,1.55
2022-09-28T07:02:06.431Z,1.02
2022-09-28T07:05:08.170Z,0.90
2022-09-28T07:08:04.883Z,1.25
2022-09-28T07:10:47.807Z,1.48
2022-09-28T07:13:50.870Z,1.15
2022-09-28T07:16:26.558Z,2.20
2022-09-28T07:18:55.977Z,1.20
2022-09-28T07:21:29.642Z,2.65
2022-09-28T07:24:00.708Z,1.10
2022-09-28T07:26:46.716Z,1.33
2022-09-28T07:29:22.980Z,2.22
2022-09-28T07:32:01.480Z,1.13
2022-09-28T07:37:32.610Z,1.08
2022-09-28T07:40:18.976Z,1.05
2022-09-28T07:42:46.769Z,1.27
2022-09-28T07:45:14.668Z,1.40
2022-09-28T07:47:42.195Z,1.40
2022-09-28T07:50:21.235Z,0.93
2022-09-28T07:52:56.978Z,1.33
2022-09-28T07:55:59.055Z,1.42
2022-09-28T07:58:59.000Z,1.10
2022-09-28T08:01:32.774Z,2.50
2022-09-28T08:04:01.376Z,1.30
2022-09-28T08:06:30.767Z,1.20
2022-09-28T08:08:59.931Z,1.58
2022-09-28T08:11:47.358Z,1.50
2022-09-28T08:14:34.272Z,1.30
2022-09-28T08:17:16.968Z,1.52
2022-09-28T08:20:06.148Z,1.33
2022-09-28T08:22:33.870Z,1.42
2022-09-28T08:25:02.290Z,0.98
2022-09-28T08:27:30.472Z,1.85
2022-09-28T08:29:58.003Z,1.67
2022-09-28T08:32:46.865Z,2.67
2022-09-28T08:35:46.877Z,1.65
2022-09-28T08:38:18.532Z,1.83
2022-09-28T08:41:14.013Z,1.33
2022-09-28T08:44:26.865Z,1.77
2022-09-28T08:47:35.928Z,1.90
2022-09-28T08:53:28.927Z,1.30
2022-09-28T08:56:15.032Z,1.65
2022-09-28T08:58:45.873Z,1.83
2022-09-28T09:01:16.750Z,1.27
2022-09-28T09:03:46.209Z,1.30
2022-09-28T09:06:46.013Z,1.30
2022-09-28T09:09:49.941Z,1.13
2022-09-28T09:12:23.741Z,1.63
2022-09-28T09:14:59.126Z,1.80
2022-09-28T09:17:32.057Z,1.63
2022-09-28T09:20:17.410Z,1.33
2022-09-28T09:23:03.330Z,1.42
2022-09-28T09:25:42.809Z,2.35
2022-09-28T09:28:26.220Z,1.48
2022-09-28T09:31:08.319Z,1.40
2022-09-28T09:33:52.200Z,1.30
2022-09-28T09:36:47.217Z,1.90
2022-09-28T09:39:55.694Z,1.50
2022-09-28T09:42:57.552Z,2.20
2022-09-28T09:46:03.086Z,1.60
2022-09-28T09:48:39.092Z,1.92
2022-09-28T09:51:16.483Z,1.58
2022-09-28T09:53:50.711Z,1.90
2022-09-28T09:56:21.307Z,2.00
2022-09-28T09:59:09.033Z,1.23
2022-09-28T10:01:43.389Z,0.70
2022-09-28T10:04:42.405Z,1.10
2022-09-28T10:07:47.170Z,1.40
2022-09-28T10:10:41.033Z,1.70
2022-09-28T10:13:11.529Z,1.55
2022-09-28T10:15:41.166Z,1.45
2022-09-28T10:18:41.324Z,1.25
2022-09-28T10:21:28.017Z,1.17
2022-09-28T10:24:04.196Z,1.67
2022-09-28T10:26:35.161Z,1.08
2022-09-28T10:29:13.204Z,1.30
2022-09-28T10:31:45.300Z,1.55
2022-09-28T10:34:36.104Z,1.65
2022-09-28T10:37:11.121Z,1.88
2022-09-28T10:39:56.575Z,1.10
2022-09-28T10:42:32.177Z,1.42
2022-09-28T10:45:13.756Z,1.48
2022-09-28T10:47:44.669Z,1.38
2022-09-28T10:50:20.864Z,1.27
2022-09-28T10:52:49.208Z,1.20
2022-09-28T10:55:37.043Z,1.60
2022-09-28T10:58:24.654Z,1.60
2022-09-28T11:00:52.701Z,1.80
2022-09-28T11:03:25.154Z,1.30
2022-09-28T11:06:07.217Z,2.08
2022-09-28T11:08:42.435Z,1.38
2022-09-28T11:11:15.366Z,1.85
2022-09-28T11:13:48.722Z,1.75
2022-09-28T11:16:24.014Z,1.42
2022-09-28T11:18:51.987Z,1.10
2022-09-28T11:21:28.106Z,1.75
2022-09-28T11:24:07.354Z,2.42
2022-09-28T11:26:46.316Z,2.92
2022-09-28T11:29:21.003Z,1.70
2022-09-28T11:32:01.758Z,1.42
2022-09-28T11:34:57.623Z,2.58
2022-09-28T11:37:23.888Z,1.90
2022-09-28T11:40:08.612Z,1.83
2022-09-28T11:42:57.352Z,2.75
2022-09-28T11:45:41.582Z,2.28
2022-09-28T11:48:11.937Z,1.55
2022-09-28T11:50:50.067Z,1.48
2022-09-28T11:53:22.135Z,1.30
2022-09-28T11:55:59.300Z,1.40
2022-09-28T11:58:30.379Z,1.20
2022-09-28T12:01:04.392Z,1.10
2022-09-28T12:03:53.622Z,2.28
2022-09-28T12:06:24.723Z,1.90
2022-09-28T12:08:55.954Z,1.27
2022-09-28T12:11:56.459Z,1.75
2022-09-28T12:14:41.006Z,1.40
2022-09-28T12:17:32.299Z,1.98
2022-09-28T12:20:19.300Z,1.90
2022-09-28T12:22:50.544Z,2.65
2022-09-28T12:25:21.951Z,2.05
2022-09-28T12:27:56.874Z,2.35
2022-09-28T12:30:25.738Z,1.70
2022-09-28T12:33:02.462Z,1.90
2022-09-28T12:35:30.112Z,1.55
2022-09-28T12:38:08.797Z,1.67
2022-09-28T12:40:44.769Z,1.65
2022-09-28T12:43:44.441Z,1.60
2022-09-28T12:46:21.175Z,1.88
2022-09-28T12:49:04.154Z,1.30
2022-09-28T12:52:02.364Z,1.40
2022-09-28T12:54:45.180Z,1.10
2022-09-28T12:57:28.260Z,1.20
2022-09-28T13:00:11.697Z,1.10
2022-09-28T13:02:48.640Z,1.33
2022-09-28T13:05:22.474Z,1.48
2022-09-28T13:07:54.790Z,3.42
2022-09-28T13:10:27.812Z,2.38
2022-09-28T13:12:55.501Z,1.73
2022-09-28T13:15:23.601Z,1.52
2022-09-28T13:17:55.394Z,1.58
2022-09-28T13:20:32.379Z,1.10
2022-09-28T13:23:18.376Z,1.30
2022-09-28T13:25:51.921Z,1.42
2022-09-28T13:28:26.287Z,1.35
2022-09-28T13:30:56.360Z,1.20
2022-09-28T13:33:30.125Z,1.63
2022-09-28T13:35:57.815Z,1.20
2022-09-28T13:38:25.496Z,1.80
2022-09-28T13:41:05.071Z,1.80
2022-09-28T13:43:36.169Z,1.25
2022-09-28T13:48:44.349Z,0.80
2022-09-28T13:51:32.261Z,0.80
2022-09-28T13:54:02.879Z,1.50
2022-09-28T13:56:53.782Z,1.10
2022-09-28T13:59:42.567Z,1.13
2022-09-28T14:02:10.309Z,0.98
2022-09-28T14:04:56.754Z,2.08
2022-09-28T14:07:47.709Z,21.13
2022-09-28T14:10:25.960Z,12.93
2022-09-28T14:12:54.338Z,6.10
2022-09-28T14:15:31.323Z,2.88
2022-09-28T14:18:02.579Z,1.60
2022-09-28T14:23:25.337Z,2.08
2022-09-28T14:26:07.146Z,2.45
2022-09-28T14:28:49.122Z,5.78
2022-09-28T14:31:22.391Z,4.40
2022-09-28T14:33:58.231Z,11.32
2022-09-28T14:36:46.555Z,2.20
2022-09-28T14:39:48.311Z,1.52
2022-09-28T14:42:19.803Z,1.45
2022-09-28T14:45:13.349Z,1.70
2022-09-28T14:48:00.141Z,1.77
2022-09-28T14:50:29.370Z,3.17
2022-09-28T14:53:15.451Z,19.65
2022-09-28T14:55:58.014Z,18.63
2022-09-28T14:58:27.473Z,7.13
2022-09-28T15:00:59.051Z,11.48
2022-09-28T15:03:28.351Z,5.55
2022-09-28T15:05:56.000Z,6.53
2022-09-28T15:08:27.284Z,3.35
2022-09-28T15:10:55.017Z,1.63
2022-09-28T15:13:27.369Z,19.95
2022-09-28T15:15:56.109Z,4.97
2022-09-28T15:18:33.228Z,2.15
2022-09-28T15:21:01.458Z,1.20
2022-09-28T15:23:36.313Z,2.13
2022-09-28T15:26:04.764Z,2.15
2022-09-28T15:28:34.560Z,1.30
2022-09-28T15:31:03.454Z,1.98
2022-09-28T15:33:59.599Z,1.33
2022-09-28T15:36:29.709Z,2.00
2022-09-28T15:38:59.783Z,1.37
2022-09-28T15:41:28.238Z,1.27
2022-09-28T15:44:08.512Z,1.25
2022-09-28T15:46:49.196Z,0.80
2022-09-28T15:49:28.135Z,0.87
2022-09-28T15:52:00.242Z,1.50
2022-09-28T15:54:36.376Z,1.20
2022-09-28T15:57:05.900Z,1.45
2022-09-28T15:59:39.498Z,1.20
2022-09-28T16:02:16.302Z,1.33
2022-09-28T16:05:05.427Z,1.27
2022-09-28T16:07:48.634Z,1.13
2022-09-28T16:10:31.025Z,1.35
2022-09-28T16:13:00.215Z,1.00
2022-09-28T16:15:38.196Z,1.25
2022-09-28T16:18:23.858Z,1.67
2022-09-28T16:20:53.001Z,1.50
2022-09-28T16:23:30.239Z,1.20
2022-09-28T16:26:09.779Z,1.38
2022-09-28T16:31:27.967Z,1.45
2022-09-28T16:34:11.368Z,1.20
2022-09-28T16:36:43.674Z,1.27
2022-09-28T16:39:11.779Z,1.33
2022-09-28T16:41:44.152Z,1.35
2022-09-28T16:44:31.067Z,2.05
2022-09-28T16:47:00.611Z,1.98
2022-09-28T16:49:30.321Z,1.52
2022-09-28T16:52:01.912Z,1.55
2022-09-28T16:54:48.302Z,1.73
2022-09-28T16:57:21.320Z,1.50
2022-09-28T16:59:51.229Z,1.70
2022-09-28T17:02:45.101Z,2.40
2022-09-28T17:05:10.592Z,2.65
2022-09-28T17:07:38.499Z,3.42
2022-09-28T17:10:23.331Z,3.67
2022-09-28T17:12:51.011Z,3.42
2022-09-28T17:15:20.087Z,3.70
2022-09-28T17:17:48.815Z,3.08
2022-09-28T17:20:22.866Z,2.40
2022-09-28T17:22:51.065Z,2.83
2022-09-28T17:25:20.875Z,2.45
2022-09-28T17:27:55.987Z,1.98
2022-09-28T17:30:25.837Z,2.63
2022-09-28T17:32:54.579Z,2.08
2022-09-28T17:35:25.040Z,2.08
2022-09-28T17:37:53.436Z,2.28
2022-09-28T17:40:23.266Z,2.13
2022-09-28T17:42:52.599Z,2.00
2022-09-28T17:45:20.399Z,1.92
2022-09-28T17:47:48.327Z,2.08
2022-09-28T17:50:21.649Z,2.30
2022-09-28T17:52:53.004Z,1.88
2022-09-28T17:55:25.496Z,2.20
2022-09-28T17:58:00.906Z,2.35
2022-09-28T18:00:32.872Z,2.30
2022-09-28T18:03:07.753Z,2.08
2022-09-28T18:05:37.592Z,2.30
2022-09-28T18:08:06.990Z,2.40
2022-09-28T18:10:37.305Z,1.67
2022-09-28T18:13:04.963Z,2.17
2022-09-28T18:15:32.539Z,2.03
2022-09-28T18:18:00.247Z,2.15
2022-09-28T18:20:31.302Z,2.70
2022-09-28T18:25:27.194Z,3.33
2022-09-28T18:28:00.869Z,3.83
2022-09-28T18:30:36.214Z,4.00
2022-09-28T18:33:07.312Z,3.97
2022-09-28T18:38:04.078Z,3.08
2022-09-28T18:40:33.841Z,4.00
2022-09-28T18:43:01.443Z,3.80
2022-09-28T18:45:32.551Z,3.78
2022-09-28T18:50:29.192Z,3.80
2022-09-28T18:53:12.110Z,2.72
2022-09-28T18:55:44.766Z,3.00
2022-09-28T18:58:12.859Z,3.33
2022-09-28T19:00:41.093Z,3.17
2022-09-28T19:03:12.726Z,4.32
2022-09-28T19:05:45.349Z,3.78
2022-09-28T19:08:13.341Z,4.13
2022-09-28T19:10:45.568Z,3.72
2022-09-28T19:13:13.258Z,4.43
2022-09-28T19:15:41.420Z,7.47
2022-09-28T19:18:16.876Z,8.15
2022-09-28T19:20:44.826Z,9.20
2022-09-28T19:23:20.450Z,8.27
2022-09-28T19:25:48.690Z,7.60
2022-09-28T19:28:16.359Z,6.05
2022-09-28T19:30:44.634Z,4.38
2022-09-28T19:36:01.382Z,4.25
2022-09-28T19:38:30.292Z,2.78
2022-09-28T19:41:05.439Z,3.25
2022-09-28T19:43:34.805Z,3.10
2022-09-28T19:46:05.193Z,4.00
2022-09-28T19:48:34.387Z,2.75
2022-09-28T19:51:01.954Z,3.40
2022-09-28T19:53:31.895Z,2.63
2022-09-28T19:56:05.225Z,3.03
2022-09-28T19:58:37.152Z,2.50
2022-09-28T20:01:11.038Z,2.83
2022-09-28T20:03:38.949Z,3.47
2022-09-28T20:06:06.903Z,3.22
2022-09-28T20:08:35.615Z,3.17
2022-09-28T20:11:03.849Z,3.72
2022-09-28T20:13:33.054Z,3.75
2022-09-28T20:16:09.401Z,4.20
2022-09-28T20:18:38.304Z,4.60
2022-09-28T20:21:07.257Z,3.65
2022-09-28T20:23:38.328Z,3.85
2022-09-28T20:28:34.165Z,4.00
2022-09-28T20:31:09.251Z,4.25
2022-09-28T20:33:38.938Z,4.15
2022-09-28T20:36:09.199Z,3.38
2022-09-28T20:38:43.228Z,3.67
2022-09-28T20:41:13.892Z,4.45
2022-09-28T20:43:42.998Z,5.43
2022-09-28T20:46:11.043Z,3.92
2022-09-28T20:48:39.529Z,3.75
2022-09-28T20:51:11.150Z,3.17
2022-09-28T20:53:46.812Z,3.75
2022-09-28T20:56:26.338Z,4.47
2022-09-28T20:58:58.094Z,4.10
2022-09-28T21:01:26.866Z,4.43
2022-09-28T21:03:56.018Z,4.80
2022-09-28T21:06:27.977Z,5.30
2022-09-28T21:08:55.747Z,5.10
2022-09-28T21:11:24.042Z,4.85
2022-09-28T21:14:10.322Z,5.32
2022-09-28T21:16:38.497Z,5.35
2022-09-28T21:19:06.280Z,5.22
2022-09-28T21:21:33.963Z,5.45
2022-09-28T21:24:02.206Z,6.53
2022-09-28T21:26:31.230Z,6.22
2022-09-28T21:29:00.337Z,5.43
2022-09-28T21:31:32.847Z,5.60
2022-09-28T21:34:00.821Z,5.68
2022-09-28T21:36:28.527Z,4.40
2022-09-28T21:38:59.095Z,4.75
2022-09-28T21:41:26.855Z,5.10
2022-09-28T21:43:54.546Z,5.22
2022-09-28T21:46:22.707Z,5.32
2022-09-28T21:48:53.790Z,4.18
2022-09-28T21:53:50.041Z,4.35
2022-09-28T21:56:17.784Z,3.90
2022-09-28T21:58:45.515Z,3.85
2022-09-28T22:01:15.489Z,3.75
2022-09-28T22:03:44.148Z,3.42
2022-09-28T22:06:12.331Z,3.47
2022-09-28T22:08:40.347Z,3.30
2022-09-28T22:11:09.297Z,3.33
2022-09-28T22:13:39.878Z,3.95
2022-09-28T22:16:08.229Z,3.47
2022-09-28T22:18:36.187Z,3.95
2022-09-28T22:21:03.837Z,3.63
2022-09-28T22:23:31.437Z,3.65
2022-09-28T22:26:11.149Z,3.60
2022-09-28T22:28:39.028Z,3.30
2022-09-28T22:31:07.142Z,2.90
2022-09-28T22:33:34.973Z,3.30
2022-09-28T22:36:02.866Z,2.95
2022-09-28T22:38:31.989Z,3.15
2022-09-28T22:40:59.680Z,2.60
2022-09-28T22:43:28.537Z,3.25
2022-09-28T22:46:09.658Z,2.80
2022-09-28T22:51:06.171Z,3.53
2022-09-28T22:53:34.491Z,3.97
2022-09-28T22:56:05.230Z,3.50
2022-09-28T22:58:36.864Z,4.13
2022-09-28T23:01:12.303Z,3.78
2022-09-28T23:03:44.565Z,4.80
2022-09-28T23:06:13.125Z,4.38
2022-09-28T23:08:40.840Z,4.35
2022-09-28T23:11:08.730Z,4.72
2022-09-28T23:13:37.621Z,5.28
2022-09-28T23:16:06.501Z,5.35
2022-09-28T23:18:35.847Z,4.45
2022-09-28T23:21:04.941Z,4.95
2022-09-28T23:23:32.719Z,4.03
2022-09-28T23:26:00.860Z,4.30
2022-09-28T23:28:28.676Z,4.45
2022-09-28T23:30:56.655Z,4.95
2022-09-28T23:33:24.372Z,4.30
2022-09-28T23:35:51.915Z,4.03
2022-09-28T23:38:19.509Z,4.15
2022-09-28T23:40:47.350Z,3.80
2022-09-28T23:43:15.344Z,3.50
2022-09-28T23:45:43.979Z,4.00
2022-09-28T23:48:15.051Z,3.78
2022-09-28T23:53:11.309Z,4.10
2022-09-28T23:55:38.862Z,3.35
2022-09-28T23:58:06.440Z,4.68
